Time;durP1;ratioP1;P1;durP2;ratioP2;P2;SDS_P1;SDS_P2;PMS_P1;PMS_P2;Temp;Humidity;BMP_temperature;BMP_pressure;BME280_temperature;BME280_humidity;BME280_pressure;Samples;Min_cycle;Max_cycle;Signal;HPM_P1;HPM_P2
2023/09/11 00:02:12;;;;;;;6.57;2.97;;;;;;;17.61;47.75;94237.25;5000210;28;20050;-78
2023/09/11 00:04:38;;;;;;;6.07;2.55;;;;;;;17.57;47.79;94240.97;4998390;28;20042;-78
2023/09/11 00:07:03;;;;;;;4.65;2.72;;;;;;;17.56;47.48;94242.09;4999825;28;20517;-77
2023/09/11 00:09:29;;;;;;;7.93;3.15;;;;;;;17.50;47.92;94248.88;4998709;28;20112;-76
2023/09/11 00:11:54;;;;;;;5.78;3.08;;;;;;;17.32;48.08;94232.28;5001901;28;20522;-77
2023/09/11 00:14:20;;;;;;;4.65;3.03;;;;;;;17.34;48.31;94234.63;4986553;28;20040;-77
2023/09/11 00:16:45;;;;;;;4.35;2.90;;;;;;;17.39;48.12;94240.53;5002941;28;20065;-77
2023/09/11 00:19:12;;;;;;;5.45;2.85;;;;;;;17.28;48.14;94236.00;5001059;28;20034;-79
2023/09/11 00:21:37;;;;;;;4.32;2.72;;;;;;;17.22;48.23;94240.06;4998082;28;20041;-78
2023/09/11 00:24:04;;;;;;;6.63;3.13;;;;;;;17.21;48.38;94230.47;4999366;28;20026;-78
2023/09/11 00:26:29;;;;;;;5.10;4.07;;;;;;;17.20;48.71;94239.63;5002323;28;20113;-76
2023/09/11 00:28:58;;;;;;;5.88;3.88;;;;;;;17.11;48.51;94237.84;4972359;28;20042;-76
2023/09/11 00:31:23;;;;;;;13.73;3.65;;;;;;;17.18;48.78;94227.31;4994362;28;20129;-77
2023/09/11 00:33:48;;;;;;;6.00;3.55;;;;;;;17.07;48.54;94226.22;5000937;28;20500;-76
2023/09/11 00:36:14;;;;;;;7.95;3.55;;;;;;;16.99;48.91;94224.47;4974236;28;20136;-77
2023/09/11 00:38:39;;;;;;;5.68;3.80;;;;;;;17.06;48.65;94240.78;5001666;28;20463;-79
2023/09/11 00:41:05;;;;;;;8.07;3.90;;;;;;;16.99;49.11;94229.06;5001719;28;20046;-78
2023/09/11 00:43:30;;;;;;;5.55;3.30;;;;;;;17.00;49.00;94227.94;4997309;28;20406;-78
2023/09/11 00:45:57;;;;;;;4.38;3.25;;;;;;;16.99;48.84;94240.59;4988347;28;20096;-77
2023/09/11 00:48:23;;;;;;;6.50;3.72;;;;;;;16.97;48.99;94237.47;4999890;28;20042;-76
2023/09/11 00:50:49;;;;;;;5.25;3.10;;;;;;;16.82;49.31;94235.50;5000943;28;20489;-78
2023/09/11 00:53:15;;;;;;;6.50;2.95;;;;;;;16.82;49.56;94232.81;5000513;28;20032;-78
2023/09/11 00:55:44;;;;;;;3.67;3.13;;;;;;;16.88;49.38;94239.53;5000392;28;20034;-77
2023/09/11 00:58:09;;;;;;;6.88;3.65;;;;;;;16.89;49.62;94235.72;4999292;28;21079;-79
2023/09/11 01:00:36;;;;;;;7.63;3.67;;;;;;;16.90;49.60;94236.50;4999650;28;20057;-78
2023/09/11 01:03:02;;;;;;;5.00;3.55;;;;;;;16.86;49.59;94231.03;4998937;28;20049;-79
2023/09/11 01:05:29;;;;;;;5.38;3.25;;;;;;;16.92;49.65;94223.50;5000692;28;20497;-79
2023/09/11 01:07:55;;;;;;;4.45;2.95;;;;;;;16.83;49.75;94218.28;4999489;28;20034;-77
2023/09/11 01:10:21;;;;;;;5.30;3.20;;;;;;;16.82;49.67;94224.00;5000565;28;20105;-77
2023/09/11 01:12:46;;;;;;;6.25;3.47;;;;;;;16.72;49.52;94185.75;4980538;28;20100;-78
2023/09/11 01:15:12;;;;;;;4.32;3.13;;;;;;;16.83;50.10;94230.91;4998196;28;20038;-78
2023/09/11 01:17:48;;;;;;;7.80;3.47;;;;;;;16.78;49.81;94234.63;5001680;28;20021;-79
2023/09/11 01:20:32;;;;;;;10.82;3.83;;;;;;;16.76;49.67;94239.59;5000232;28;20064;-78
2023/09/11 01:23:29;;;;;;;6.95;3.40;;;;;;;16.74;49.75;94239.13;4997199;28;20140;-78
2023/09/11 01:26:18;;;;;;;4.45;3.35;;;;;;;16.64;50.17;94239.59;5003983;28;20034;-78
2023/09/11 01:29:02;;;;;;;5.32;2.80;;;;;;;16.58;50.46;94232.91;4996380;28;20378;-77
2023/09/11 01:31:31;;;;;;;4.70;3.90;;;;;;;16.55;50.17;94230.91;5000525;28;20046;-77
2023/09/11 01:34:04;;;;;;;5.50;3.30;;;;;;;16.52;50.52;94232.38;5000034;28;20045;-79
2023/09/11 01:36:29;;;;;;;6.07;3.40;;;;;;;16.41;50.35;94217.06;5001163;28;20041;-78
2023/09/11 01:38:56;;;;;;;8.75;3.70;;;;;;;16.45;50.64;94226.81;5000418;28;20026;-78
2023/09/11 01:41:26;;;;;;;6.57;3.35;;;;;;;16.42;50.80;94219.44;5002380;28;20456;-79
2023/09/11 01:43:57;;;;;;;4.88;3.50;;;;;;;16.34;50.78;94220.31;4980148;28;20560;-78
2023/09/11 01:46:23;;;;;;;6.40;2.92;;;;;;;16.33;50.96;94219.53;4998480;28;20108;-78
2023/09/11 01:48:51;;;;;;;4.93;2.95;;;;;;;16.23;50.89;94213.84;5000083;28;20608;-78
2023/09/11 01:51:17;;;;;;;8.30;3.00;;;;;;;16.28;51.07;94222.44;4996932;28;20034;-78
2023/09/11 01:53:43;;;;;;;10.23;3.78;;;;;;;16.18;51.06;94212.16;4999049;28;20025;-78
2023/09/11 01:56:09;;;;;;;5.07;3.38;;;;;;;16.11;51.64;94220.00;4982845;28;20041;-79
2023/09/11 01:58:35;;;;;;;4.45;3.15;;;;;;;16.04;51.52;94211.75;4999847;28;20737;-75
2023/09/11 02:01:00;;;;;;;4.53;3.03;;;;;;;15.98;51.62;94205.06;5000376;28;20045;-78
2023/09/11 02:03:27;;;;;;;5.32;3.35;;;;;;;16.10;51.75;94229.19;4984746;28;20037;-77
2023/09/11 02:05:54;;;;;;;13.82;3.35;;;;;;;15.90;51.76;94196.00;5001868;28;20030;-78
2023/09/11 02:08:20;;;;;;;7.72;3.35;;;;;;;16.08;51.43;94222.59;4997766;28;20113;-78
2023/09/11 02:10:46;;;;;;;6.05;3.47;;;;;;;16.07;51.53;94213.75;5001354;28;20029;-78
2023/09/11 02:13:12;;;;;;;9.55;3.58;;;;;;;15.90;51.63;94189.84;4996084;28;20038;-77
2023/09/11 02:15:37;;;;;;;5.57;3.38;;;;;;;15.93;51.60;94210.66;4998846;28;20104;-78
2023/09/11 02:18:02;;;;;;;5.03;3.10;;;;;;;15.96;51.94;94212.66;5000829;28;20037;-78
2023/09/11 02:20:28;;;;;;;6.03;2.70;;;;;;;15.97;51.73;94210.75;4996927;28;20497;-79
2023/09/11 02:22:54;;;;;;;4.32;3.05;;;;;;;15.92;51.83;94202.94;5000700;28;20629;-78
2023/09/11 02:25:19;;;;;;;4.22;3.00;;;;;;;15.93;51.41;94189.19;4998601;28;20033;-78
2023/09/11 02:27:45;;;;;;;11.00;3.85;;;;;;;15.99;51.74;94211.22;4995539;28;20037;-75
2023/09/11 02:30:11;;;;;;;6.00;3.00;;;;;;;16.01;51.77;94223.16;4998201;28;20038;-78
2023/09/11 02:32:36;;;;;;;8.23;3.22;;;;;;;15.87;51.89;94212.00;4996560;28;20015;-78
2023/09/11 02:35:01;;;;;;;3.78;2.78;;;;;;;15.76;52.02;94200.94;4998171;28;20585;-77
2023/09/11 02:37:27;;;;;;;5.65;3.40;;;;;;;15.81;52.18;94210.66;4999134;28;20041;-78
2023/09/11 02:39:53;;;;;;;6.45;3.30;;;;;;;15.80;51.98;94206.38;4999566;28;20034;-78
2023/09/11 02:42:18;;;;;;;4.88;3.15;;;;;;;15.73;52.41;94212.34;4997337;28;20092;-78
2023/09/11 02:44:44;;;;;;;5.03;2.95;;;;;;;15.78;52.47;94205.97;4998645;28;20060;-78
2023/09/11 02:47:09;;;;;;;5.93;2.88;;;;;;;15.62;52.63;94184.41;5000650;28;20670;-77
2023/09/11 02:49:34;;;;;;;9.52;3.50;;;;;;;15.76;52.18;94208.19;4996761;28;20421;-78
2023/09/11 02:52:00;;;;;;;3.65;2.75;;;;;;;15.77;52.04;94201.72;4996621;28;20061;-78
2023/09/11 02:54:25;;;;;;;3.97;2.58;;;;;;;15.79;52.13;94204.84;4998203;28;20053;-78
2023/09/11 02:56:51;;;;;;;6.20;2.53;;;;;;;15.76;52.42;94200.16;4995385;28;20486;-78
2023/09/11 02:59:17;;;;;;;5.45;2.70;;;;;;;15.74;52.35;94208.50;4998512;28;20018;-75
2023/09/11 03:01:42;;;;;;;6.43;2.72;;;;;;;15.73;52.28;94190.09;4997485;28;20050;-78
2023/09/11 03:04:07;;;;;;;6.22;2.97;;;;;;;15.69;52.60;94192.69;4998511;28;20037;-74
2023/09/11 03:06:33;;;;;;;9.18;3.05;;;;;;;15.77;52.48;94196.34;4997141;28;20553;-79
2023/09/11 03:08:58;;;;;;;4.07;2.88;;;;;;;15.61;52.30;94182.03;4998889;28;20097;-76
2023/09/11 03:11:24;;;;;;;3.90;2.65;;;;;;;15.65;52.33;94210.53;4999398;28;20022;-78
2023/09/11 03:13:49;;;;;;;5.22;2.75;;;;;;;15.61;52.32;94203.50;4997436;28;20041;-74
2023/09/11 03:16:16;;;;;;;4.30;2.67;;;;;;;15.56;52.62;94217.13;4999299;28;20038;-79
2023/09/11 03:18:41;;;;;;;3.78;3.03;;;;;;;15.45;52.86;94204.16;4995416;28;20038;-77
2023/09/11 03:21:07;;;;;;;4.53;3.20;;;;;;;15.48;52.83;94220.69;5001110;28;20034;-79
2023/09/11 03:23:33;;;;;;;8.02;2.60;;;;;;;15.41;52.97;94207.81;4997398;28;20022;-78
2023/09/11 03:25:59;;;;;;;4.53;2.83;;;;;;;15.53;52.91;94201.72;4996619;28;20088;-78
2023/09/11 03:28:27;;;;;;;5.90;3.42;;;;;;;15.48;52.98;94196.56;4997328;28;20113;-78
2023/09/11 03:30:53;;;;;;;9.30;3.58;;;;;;;15.53;53.00;94204.38;4994473;28;20036;-78
2023/09/11 03:33:18;;;;;;;7.00;3.42;;;;;;;15.48;52.70;94204.59;4997275;28;20683;-78
2023/09/11 03:35:46;;;;;;;8.70;3.38;;;;;;;15.46;53.23;94205.72;4997671;28;20041;-78
2023/09/11 03:38:12;;;;;;;5.32;3.42;;;;;;;15.48;52.89;94205.41;4997247;28;20073;-78
2023/09/11 03:40:38;;;;;;;4.95;3.42;;;;;;;15.32;53.34;94202.56;5000408;28;20117;-78
2023/09/11 03:43:03;;;;;;;5.15;2.97;;;;;;;15.41;53.10;94194.41;4978835;28;20155;-78
2023/09/11 03:45:29;;;;;;;7.32;3.03;;;;;;;15.48;53.21;94209.97;4997740;28;20048;-74
2023/09/11 03:47:54;;;;;;;12.38;2.65;;;;;;;15.26;53.31;94193.16;4998099;28;20033;-78
2023/09/11 03:50:19;;;;;;;5.47;3.25;;;;;;;15.41;53.32;94211.25;4998827;28;20044;-79
2023/09/11 03:52:45;;;;;;;5.07;3.15;;;;;;;15.32;53.34;94205.22;4987995;28;20030;-79
2023/09/11 03:55:10;;;;;;;3.90;2.42;;;;;;;15.37;53.46;94221.09;4999073;28;20086;-77
2023/09/11 03:57:35;;;;;;;6.07;3.00;;;;;;;15.30;53.34;94209.38;4995368;28;20391;-78
2023/09/11 04:00:01;;;;;;;6.45;3.25;;;;;;;15.26;53.56;94205.75;4998098;28;20057;-77
2023/09/11 04:02:26;;;;;;;3.15;2.42;;;;;;;15.22;53.32;94205.66;4980727;28;20052;-76
2023/09/11 04:04:52;;;;;;;5.15;3.05;;;;;;;15.36;53.34;94227.56;4996599;28;20161;-77
2023/09/11 04:07:17;;;;;;;4.95;2.88;;;;;;;15.28;53.65;94216.94;4998615;28;20512;-76
2023/09/11 04:09:43;;;;;;;5.25;2.63;;;;;;;15.28;53.49;94212.38;4997190;28;20072;-78
2023/09/11 04:12:08;;;;;;;7.78;2.95;;;;;;;15.31;53.53;94227.78;4997273;28;20140;-78
2023/09/11 04:14:37;;;;;;;4.63;2.97;;;;;;;15.22;53.61;94212.91;4999022;28;20030;-78
2023/09/11 04:17:02;;;;;;;5.00;3.10;;;;;;;15.21;53.80;94217.47;4994737;28;20048;-77
2023/09/11 04:19:29;;;;;;;6.18;3.35;;;;;;;15.26;53.77;94219.16;4997590;28;20030;-77
2023/09/11 04:21:54;;;;;;;5.28;3.10;;;;;;;15.11;54.00;94209.88;4995848;28;20464;-78
2023/09/11 04:24:19;;;;;;;5.97;2.60;;;;;;;14.90;54.25;94164.41;4982099;28;20041;-77
2023/09/11 04:26:45;;;;;;;6.53;3.05;;;;;;;15.08;54.61;94207.84;4981232;28;20447;-77
2023/09/11 04:29:10;;;;;;;5.05;2.63;;;;;;;15.22;54.57;94228.97;4996874;28;20041;-77
2023/09/11 04:31:36;;;;;;;8.57;3.28;;;;;;;15.18;54.91;94218.16;4995110;28;20100;-77
2023/09/11 04:34:04;;;;;;;6.03;2.88;;;;;;;15.25;54.78;94217.63;4997151;28;20458;-77
2023/09/11 04:36:30;;;;;;;5.28;2.90;;;;;;;15.27;54.96;94221.53;4994612;28;20030;-77
2023/09/11 04:38:55;;;;;;;8.10;2.40;;;;;;;15.39;54.45;94228.81;4997192;28;20026;-77
2023/09/11 04:41:21;;;;;;;4.32;2.67;;;;;;;15.34;54.66;94220.97;4998269;28;20029;-78
2023/09/11 04:43:46;;;;;;;4.80;2.65;;;;;;;15.36;54.98;94230.25;4998398;28;20040;-77
2023/09/11 04:46:12;;;;;;;5.05;2.83;;;;;;;15.48;54.51;94242.13;4997569;28;20038;-77
2023/09/11 04:48:37;;;;;;;4.75;2.53;;;;;;;15.60;54.39;94228.72;4996168;28;20034;-78
2023/09/11 04:51:03;;;;;;;3.95;2.88;;;;;;;15.55;54.22;94237.03;4999559;28;20041;-78
2023/09/11 04:53:28;;;;;;;5.78;3.20;;;;;;;15.59;54.50;94232.56;5002268;28;20552;-77
2023/09/11 04:55:54;;;;;;;8.02;3.40;;;;;;;15.64;54.45;94232.34;5000179;28;20134;-79
2023/09/11 04:58:19;;;;;;;4.57;2.78;;;;;;;15.68;54.38;94225.19;4999449;28;20049;-77
2023/09/11 05:00:45;;;;;;;5.00;3.00;;;;;;;15.76;54.25;94224.28;4983879;28;20104;-78
2023/09/11 05:03:10;;;;;;;3.75;2.85;;;;;;;15.78;53.63;94203.28;4993765;28;20050;-78
2023/09/11 05:05:40;;;;;;;4.30;2.50;;;;;;;15.96;53.60;94219.91;4980941;28;20463;-78
2023/09/11 05:08:06;;;;;;;8.20;3.00;;;;;;;16.07;53.16;94237.91;4982213;28;20425;-79
2023/09/11 05:10:32;;;;;;;7.68;2.80;;;;;;;16.07;53.54;94221.81;4980193;28;20498;-78
2023/09/11 05:12:58;;;;;;;12.15;3.92;;;;;;;16.15;53.05;94220.91;4981663;28;20034;-78
2023/09/11 05:15:23;;;;;;;5.53;2.47;;;;;;;15.88;52.78;94181.38;4977879;28;20410;-79
2023/09/11 05:17:49;;;;;;;5.40;2.30;;;;;;;16.29;52.36;94224.00;4980131;28;20117;-79
2023/09/11 05:20:15;;;;;;;3.35;2.47;;;;;;;16.22;52.49;94205.03;4981433;28;20035;-78
2023/09/11 05:22:41;;;;;;;7.88;3.00;;;;;;;16.34;52.05;94217.66;4984363;28;20109;-79
2023/09/11 05:25:07;;;;;;;6.97;2.50;;;;;;;16.43;52.06;94212.16;4981064;28;20482;-79
2023/09/11 05:27:33;;;;;;;5.78;2.50;;;;;;;16.48;51.59;94219.94;4995158;28;20038;-79
2023/09/11 05:29:58;;;;;;;8.50;2.92;;;;;;;16.57;51.07;94212.56;4974030;28;20038;-79
2023/09/11 05:32:25;;;;;;;5.88;2.78;;;;;;;16.60;51.30;94220.72;4984383;28;20018;-79
2023/09/11 05:34:51;;;;;;;12.65;3.17;;;;;;;16.64;51.49;94220.81;4981233;28;20742;-78
2023/09/11 05:37:17;;;;;;;9.98;3.03;;;;;;;16.50;51.19;94197.03;4981105;28;20030;-79
2023/09/11 05:39:43;;;;;;;8.93;3.50;;;;;;;16.48;51.74;94201.94;4980110;28;20052;-77
2023/09/11 05:42:09;;;;;;;9.80;2.88;;;;;;;16.60;51.29;94225.31;4977883;28;20034;-78
2023/09/11 05:44:35;;;;;;;9.02;3.90;;;;;;;16.70;51.64;94219.44;4981058;28;20023;-79
2023/09/11 05:47:00;;;;;;;10.95;3.88;;;;;;;16.60;51.61;94209.19;4974050;28;20197;-78
2023/09/11 05:49:25;;;;;;;7.63;3.60;;;;;;;16.71;51.60;94215.66;4976309;28;20714;-77
2023/09/11 05:51:51;;;;;;;8.23;3.60;;;;;;;16.78;51.34;94218.50;4979814;28;20046;-78
2023/09/11 05:54:16;;;;;;;7.13;2.90;;;;;;;16.79;51.42;94227.34;4976649;28;20046;-76
2023/09/11 05:56:42;;;;;;;6.95;3.17;;;;;;;16.79;51.03;94214.72;4982422;28;20120;-78
2023/09/11 05:59:07;;;;;;;7.80;4.00;;;;;;;16.77;50.58;94216.19;4971891;28;20049;-77
2023/09/11 06:01:33;;;;;;;9.27;4.38;;;;;;;16.73;50.63;94213.38;4989361;28;20038;-78
2023/09/11 06:03:58;;;;;;;11.30;3.85;;;;;;;16.70;50.89;94208.72;4978954;28;20407;-78
2023/09/11 06:06:24;;;;;;;7.85;4.38;;;;;;;16.85;50.73;94218.72;4975660;28;20034;-77
2023/09/11 06:08:49;;;;;;;5.43;4.18;;;;;;;16.86;50.77;94208.75;4981899;28;20497;-78
2023/09/11 06:11:14;;;;;;;13.23;4.50;;;;;;;16.93;50.45;94212.41;4981848;28;20031;-78
2023/09/11 06:13:41;;;;;;;9.23;4.72;;;;;;;16.97;51.22;94210.59;4978230;28;20046;-78
2023/09/11 06:16:07;;;;;;;6.50;3.47;;;;;;;16.93;51.60;94209.72;4980346;28;20584;-76
2023/09/11 06:18:32;;;;;;;13.68;4.05;;;;;;;16.99;51.08;94218.31;4976318;28;20038;-78
2023/09/11 06:20:58;;;;;;;6.30;4.05;;;;;;;17.13;51.28;94224.06;4976120;28;20379;-78
2023/09/11 06:23:23;;;;;;;5.47;3.40;;;;;;;17.25;50.70;94223.25;4981090;28;20017;-78
2023/09/11 06:25:48;;;;;;;7.03;3.63;;;;;;;16.61;51.26;94138.25;4979155;28;20035;-78
2023/09/11 06:28:14;;;;;;;8.23;3.58;;;;;;;17.34;49.83;94230.03;4976784;28;20121;-78
2023/09/11 06:30:39;;;;;;;9.57;3.67;;;;;;;17.40;50.43;94235.94;4979676;28;20038;-78
2023/09/11 06:33:05;;;;;;;5.88;3.75;;;;;;;17.26;51.47;94235.59;4978747;28;20508;-78
2023/09/11 06:35:30;;;;;;;9.05;2.97;;;;;;;17.25;51.12;94225.94;4975629;28;20255;-77
2023/09/11 06:37:56;;;;;;;10.48;4.18;;;;;;;17.55;49.27;94233.25;4979267;28;20128;-78
2023/09/11 06:40:21;;;;;;;6.65;3.55;;;;;;;17.69;49.56;94235.53;4980321;28;20541;-78
2023/09/11 06:42:46;;;;;;;10.10;4.05;;;;;;;17.77;48.91;94236.47;4979072;28;20038;-78
2023/09/11 06:45:12;;;;;;;7.03;3.63;;;;;;;17.90;48.05;94240.63;4994473;28;20037;-78
2023/09/11 06:47:37;;;;;;;9.15;4.00;;;;;;;17.91;48.73;94237.59;4977653;28;20410;-78
2023/09/11 06:50:03;;;;;;;9.90;3.28;;;;;;;17.69;50.22;94238.22;4977611;28;20046;-77
2023/09/11 06:52:28;;;;;;;9.07;3.85;;;;;;;17.91;49.20;94231.44;4977761;28;20101;-75
2023/09/11 06:54:54;;;;;;;11.15;3.80;;;;;;;18.06;49.28;94229.88;4976705;28;20045;-77
2023/09/11 06:57:20;;;;;;;14.15;4.22;;;;;;;18.00;48.74;94213.22;4979146;28;20125;-77
2023/09/11 06:59:45;;;;;;;10.55;3.60;;;;;;;18.22;49.56;94242.19;4978701;28;20505;-78
2023/09/11 07:02:10;;;;;;;9.02;4.30;;;;;;;18.26;49.54;94232.28;4988775;28;20049;-78
2023/09/11 07:04:36;;;;;;;9.65;3.83;;;;;;;18.41;49.18;94231.44;4997743;28;20053;-78
2023/09/11 07:07:01;;;;;;;10.45;4.68;;;;;;;18.44;48.56;94222.66;4999732;28;20048;-78
2023/09/11 07:09:27;;;;;;;12.10;4.47;;;;;;;18.62;48.81;94225.75;4994650;28;20677;-77
2023/09/11 07:11:52;;;;;;;15.90;4.93;;;;;;;18.64;48.86;94234.22;4997053;28;20552;-79
2023/09/11 07:14:19;;;;;;;10.05;3.83;;;;;;;18.70;46.96;94223.97;5000184;28;20692;-79
2023/09/11 07:16:45;;;;;;;6.38;3.20;;;;;;;18.80;47.45;94223.44;4994761;28;20040;-77
2023/09/11 07:19:10;;;;;;;11.43;4.25;;;;;;;18.67;48.06;94213.91;4993803;28;20038;-79
2023/09/11 07:21:35;;;;;;;9.35;3.38;;;;;;;18.82;48.38;94221.16;4989466;28;20796;-77
2023/09/11 07:24:01;;;;;;;9.13;2.78;;;;;;;18.92;47.85;94222.50;4993401;28;20037;-78
2023/09/11 07:26:26;;;;;;;5.85;3.35;;;;;;;19.07;47.72;94218.94;4998003;28;20470;-77
2023/09/11 07:29:01;;;;;;;8.65;3.53;;;;;;;19.24;46.33;94226.59;4992853;28;20046;-78
2023/09/11 07:31:27;;;;;;;11.15;3.72;;;;;;;19.04;47.52;94223.13;4992780;28;20508;-79
2023/09/11 07:33:53;;;;;;;8.98;3.00;;;;;;;19.00;47.02;94210.72;4963577;28;20034;-79
2023/09/11 07:36:19;;;;;;;12.60;2.95;;;;;;;19.27;46.69;94215.06;4970605;28;20245;-78
2023/09/11 07:38:45;;;;;;;7.03;2.90;;;;;;;19.45;46.99;94216.22;4992538;28;20029;-79
2023/09/11 07:41:15;;;;;;;7.45;3.40;;;;;;;19.40;46.32;94223.78;4996584;28;20475;-78
2023/09/11 07:43:44;;;;;;;14.40;4.03;;;;;;;19.02;46.76;94232.72;4994557;28;20030;-78
2023/09/11 07:46:09;;;;;;;11.10;4.15;;;;;;;19.30;46.93;94219.78;4993197;28;20065;-78
2023/09/11 07:48:35;;;;;;;10.13;3.60;;;;;;;19.26;46.79;94224.31;4994003;28;20501;-79
2023/09/11 07:51:00;;;;;;;7.95;3.80;;;;;;;19.23;46.25;94198.06;4991263;28;20651;-77
2023/09/11 07:53:26;;;;;;;9.85;3.53;;;;;;;19.60;45.77;94223.38;4992815;28;20037;-79
2023/09/11 07:55:51;;;;;;;14.73;3.60;;;;;;;19.75;45.65;94208.22;4972765;28;20050;-78
2023/09/11 07:58:17;;;;;;;12.40;3.83;;;;;;;19.60;45.90;94207.19;4982293;28;20502;-78
2023/09/11 08:00:42;;;;;;;8.25;3.33;;;;;;;19.88;45.37;94216.91;4982918;28;20388;-76
2023/09/11 08:03:08;;;;;;;7.70;3.50;;;;;;;;;;4969727;28;20191;-76
2023/09/11 08:05:33;;;;;;;7.03;3.53;;;;;;;19.82;44.54;94202.16;4964929;28;20605;-77
2023/09/11 08:08:01;;;;;;;10.73;3.95;;;;;;;19.90;44.33;94217.31;4964397;28;20050;-78
2023/09/11 08:10:27;;;;;;;11.38;3.90;;;;;;;19.91;44.04;94206.16;4963017;28;20105;-78
2023/09/11 08:12:53;;;;;;;14.55;3.97;;;;;;;19.95;43.90;94211.59;4947397;28;21059;-76
2023/09/11 08:15:18;;;;;;;10.23;3.33;;;;;;;20.10;43.95;94207.97;4949872;28;20041;-78
2023/09/11 08:17:44;;;;;;;9.38;3.17;;;;;;;20.10;42.67;94191.78;4982690;28;20121;-78
2023/09/11 08:20:10;;;;;;;13.93;3.38;;;;;;;19.95;41.62;94195.41;4966974;28;20045;-78
2023/09/11 08:22:37;;;;;;;7.28;2.90;;;;;;;20.15;41.79;94196.88;4962683;28;20114;-76
2023/09/11 08:25:02;;;;;;;6.68;3.03;;;;;;;20.07;41.36;94193.31;4969870;28;20227;-77
2023/09/11 08:27:28;;;;;;;8.10;3.03;;;;;;;20.07;41.04;94189.81;4962510;28;20752;-79
2023/09/11 08:29:55;;;;;;;9.75;3.20;;;;;;;19.80;41.11;94188.25;4951923;28;20038;-76
2023/09/11 08:32:21;;;;;;;20.33;4.47;;;;;;;20.16;41.41;94195.72;4949617;28;20483;-79
2023/09/11 08:34:46;;;;;;;9.80;4.00;;;;;;;20.07;41.16;94187.91;4979085;28;20141;-79
2023/09/11 08:37:12;;;;;;;9.18;3.38;;;;;;;20.28;40.93;94192.88;4973346;28;20046;-77
2023/09/11 08:39:37;;;;;;;5.63;3.03;;;;;;;20.40;40.99;94187.22;4970082;28;20577;-78
2023/09/11 08:42:04;;;;;;;8.57;3.80;;;;;;;20.07;41.16;94184.41;4969607;28;20022;-77
2023/09/11 08:44:30;;;;;;;7.72;3.10;;;;;;;20.06;41.12;94186.34;4970049;28;20026;-76
2023/09/11 08:47:00;;;;;;;10.20;3.38;;;;;;;19.97;41.15;94185.81;4969860;28;20519;-79
2023/09/11 08:49:39;;;;;;;8.95;3.22;;;;;;;20.08;40.98;94181.38;4969277;28;20030;-77
2023/09/11 08:52:06;;;;;;;6.82;3.65;;;;;;;20.01;41.44;94161.56;4971731;28;20362;-78
2023/09/11 08:54:37;;;;;;;7.18;3.47;;;;;;;20.33;40.71;94179.03;4968892;28;20096;-79
2023/09/11 08:57:04;;;;;;;9.30;3.70;;;;;;;20.31;40.69;94181.31;4966511;28;20036;-79
2023/09/11 08:59:32;;;;;;;10.02;3.25;;;;;;;20.17;40.77;94175.72;4967621;28;20034;-76
2023/09/11 09:01:59;;;;;;;9.50;3.13;;;;;;;20.48;40.06;94169.94;4979683;28;20052;-78
2023/09/11 09:04:25;;;;;;;6.05;3.05;;;;;;;20.64;40.90;94171.69;4987140;28;20041;-79
2023/09/11 09:06:51;;;;;;;9.90;3.47;;;;;;;20.86;40.39;94171.59;4986981;28;21093;-79
2023/09/11 09:09:21;;;;;;;8.82;4.68;;;;;;;20.93;40.66;94173.59;4992063;28;20544;-77
2023/09/11 09:11:48;;;;;;;7.45;3.17;;;;;;;21.11;40.65;94171.88;4991096;28;20041;-79
2023/09/11 09:14:18;;;;;;;9.45;4.45;;;;;;;21.05;39.58;94159.84;4976785;28;20045;-78
2023/09/11 09:16:45;;;;;;;6.30;3.00;;;;;;;21.14;39.38;94173.84;4991075;28;20026;-79
2023/09/11 09:19:10;;;;;;;8.07;3.85;;;;;;;21.22;38.98;94175.47;4996562;28;20041;-79
2023/09/11 09:21:35;;;;;;;6.43;3.20;;;;;;;21.14;39.03;94152.22;4997307;28;20124;-79
2023/09/11 09:24:17;;;;;;;6.47;2.90;;;;;;;21.19;38.27;94162.69;4996949;28;20022;-78
2023/09/11 09:27:06;;;;;;;12.27;3.17;;;;;;;21.45;38.84;94159.84;4995426;28;20065;-77
2023/09/11 09:29:37;;;;;;;9.73;3.03;;;;;;;20.84;38.33;94159.56;4988641;28;20434;-79
2023/09/11 09:32:04;;;;;;;13.48;3.03;;;;;;;20.65;38.91;94151.63;4995635;28;20038;-80
2023/09/11 09:34:32;;;;;;;9.25;3.45;;;;;;;21.01;38.71;94148.22;4993222;28;20037;-77
2023/09/11 09:36:58;;;;;;;9.63;3.22;;;;;;;21.16;38.53;94149.91;4994279;28;20037;-78
2023/09/11 09:39:28;;;;;;;6.57;3.15;;;;;;;21.36;38.46;94151.25;4994940;28;20109;-79
2023/09/11 09:42:02;;;;;;;5.55;3.47;;;;;;;21.10;37.85;94146.00;4996754;28;20179;-80
2023/09/11 09:44:31;;;;;;;8.15;3.20;;;;;;;21.16;37.85;94133.69;4994805;28;20034;-78
2023/09/11 09:47:06;;;;;;;3.83;2.75;;;;;;;21.23;37.85;94144.56;4995759;28;20038;-77
2023/09/11 09:49:43;;;;;;;6.95;2.80;;;;;;;21.41;37.32;94134.66;4994212;28;20573;-77
2023/09/11 09:52:08;;;;;;;5.32;3.13;;;;;;;21.34;38.82;94128.44;4996751;28;20923;-78
2023/09/11 09:54:41;;;;;;;7.43;2.65;;;;;;;21.51;38.30;94135.16;4987921;28;20065;-78
2023/09/11 09:57:10;;;;;;;5.10;2.40;;;;;;;21.51;37.67;94122.38;4964947;28;20033;-79
2023/09/11 09:59:36;;;;;;;9.40;3.22;;;;;;;21.48;37.18;94127.78;4991151;28;20025;-78
2023/09/11 10:02:01;;;;;;;6.00;2.63;;;;;;;21.39;37.63;94115.34;4970057;28;20058;-78
2023/09/11 10:04:27;;;;;;;5.00;2.92;;;;;;;21.35;36.97;94119.94;4991779;28;20037;-79
2023/09/11 10:06:57;;;;;;;9.38;3.17;;;;;;;21.58;37.10;94127.88;4976101;28;20592;-79
2023/09/11 10:09:22;;;;;;;6.90;2.78;;;;;;;21.45;36.34;94115.78;4969261;28;20052;-79
2023/09/11 10:11:50;;;;;;;6.50;3.05;;;;;;;21.42;36.42;94114.59;4957227;28;20062;-78
2023/09/11 10:14:18;;;;;;;4.82;2.80;;;;;;;21.63;38.17;94115.94;4976164;28;20597;-78
2023/09/11 10:16:45;;;;;;;4.55;2.60;;;;;;;21.41;37.01;94113.03;4972818;28;20093;-78
2023/09/11 10:19:12;;;;;;;10.45;2.95;;;;;;;21.76;37.88;94117.19;4978888;28;20038;-79
2023/09/11 10:21:37;;;;;;;5.65;2.17;;;;;;;21.76;37.41;94109.84;4992155;28;21084;-78
2023/09/11 10:24:04;;;;;;;5.38;2.58;;;;;;;21.93;36.70;94111.13;4976617;28;20113;-78
2023/09/11 10:26:40;;;;;;;8.02;2.28;;;;;;;21.84;35.68;94102.56;4976110;28;20022;-77
2023/09/11 10:29:11;;;;;;;4.10;2.78;;;;;;;21.61;36.25;94105.47;4975682;28;20046;-78
2023/09/11 10:31:48;;;;;;;9.30;2.65;;;;;;;21.71;36.06;94098.59;4959956;28;20039;-77
2023/09/11 10:34:14;;;;;;;7.68;2.60;;;;;;;21.58;36.82;94091.94;4985765;28;20038;-78
2023/09/11 10:36:45;;;;;;;6.07;2.65;;;;;;;21.67;36.36;94108.63;4975765;28;20041;-79
2023/09/11 10:39:13;;;;;;;8.90;2.95;;;;;;;21.87;36.44;94096.38;4993975;28;20496;-79
2023/09/11 10:41:40;;;;;;;3.83;2.13;;;;;;;21.83;35.65;94095.59;4992480;28;20032;-79
2023/09/11 10:44:06;;;;;;;6.20;2.13;;;;;;;22.09;35.22;94081.81;4971784;28;20499;-78
2023/09/11 10:46:39;;;;;;;8.00;2.90;;;;;;;22.17;35.04;94088.03;4986368;28;20035;-79
2023/09/11 10:49:16;;;;;;;6.97;2.03;;;;;;;22.24;34.75;94075.31;4975396;28;20034;-78
2023/09/11 10:51:44;;;;;;;5.78;3.45;;;;;;;22.27;34.47;94080.00;4956584;28;20047;-78
2023/09/11 10:54:12;;;;;;;7.30;2.90;;;;;;;22.21;34.77;94089.63;4956501;28;20046;-78
2023/09/11 10:56:38;;;;;;;5.05;2.72;;;;;;;22.02;35.39;94076.34;4974008;28;20034;-79
2023/09/11 10:59:04;;;;;;;7.72;3.30;;;;;;;22.06;35.74;94085.28;4973718;28;20115;-78
2023/09/11 11:01:32;;;;;;;8.32;2.72;;;;;;;22.05;33.83;94072.09;4982694;28;20066;-79
2023/09/11 11:04:01;;;;;;;5.60;2.88;;;;;;;22.08;34.17;94080.25;4993522;28;20830;-78
2023/09/11 11:06:26;;;;;;;7.38;3.10;;;;;;;22.22;33.93;94074.94;4994606;28;20056;-78
2023/09/11 11:08:53;;;;;;;6.38;3.00;;;;;;;22.20;34.35;94066.38;4977493;28;20131;-79
2023/09/11 11:11:22;;;;;;;6.35;2.75;;;;;;;22.19;35.26;94069.47;4993335;28;20492;-78
2023/09/11 11:14:26;;;;;;;3.30;2.50;;;;;;;22.37;34.43;94075.00;4995794;28;20104;-79
2023/09/11 11:16:56;;;;;;;11.80;2.45;;;;;;;22.37;35.02;94075.00;4931533;28;20153;-77
2023/09/11 11:19:29;;;;;;;8.75;2.55;;;;;;;22.32;33.42;94072.66;4922241;28;20096;-80
2023/09/11 11:21:54;;;;;;;4.63;2.42;;;;;;;22.66;33.46;94065.81;4962563;28;20152;-78
2023/09/11 11:24:23;;;;;;;8.80;2.50;;;;;;;22.81;33.36;94051.13;4975186;28;20409;-79
2023/09/11 11:26:48;;;;;;;6.85;2.80;;;;;;;22.77;33.33;94050.34;4995169;28;20067;-78
2023/09/11 11:29:16;;;;;;;5.68;2.45;;;;;;;22.42;33.70;94063.78;4992415;28;20065;-78
2023/09/11 11:31:43;;;;;;;8.73;3.42;;;;;;;22.69;33.86;94057.66;4990766;28;20038;-78